METAR AND TAF INFORMATION
METAR FOR FMMS
ADDS - METARS form results

(1404 UTC 22 February 2019)
Data provider http://aviationweather.gov/metar/data/
 
Forecast for: FMMS (SAINTE-MARIE ARP, KM)
Text: TAF FMMS 221100Z 2212/2312 04010KT 9999 SCT017 SCT033
Forecast period: 1200 UTC 22 February 2019 to 1200 UTC 23 February 2019
Forecast type: FROM: standard forecast or significant change
Winds: from the NE (40 degrees) at 12 MPH (10 knots; 5.1 m/s)
Visibility: 6 or more miles 10+ km)
Ceiling: at least 12,000 feet AGL
Clouds: scattered clouds at 1700 feet AGL
scattered clouds at 3300 feet AGL
Weather: no significant weather forecast for this period
Text: PROB30
Forecast period: 1300 UTC 22 February 2019 to 1200 UTC 23 February 2019
Forecast type: TEMPORARY: The following changes expected for less than half the time period
Visibility: 2.49 miles (4.01 km)
Ceiling: unknown
Clouds: missing
Weather: SHRA  (rain showers)

 AIRPORT MAP

 RUNWAY INFORMATION
Runway 01 Runway length 3451 ft Runway width 98 ft
Runway elevation 0 ft Runway displaced threshold 0 ft Runway heading 354
Runway 19 Runway length 3451 ft Runway width 98 ft
Runway elevation 0 ft Runway displaced threshold 290 ft Runway heading 174

 AIRPORT FREQUENCIES
Type A/G Name AIR GND Frequency 548.4 MHZ
Type AFIS Name AFIS Frequency 120.3 MHZ

 AIRPORT NEAR NAVIGATION AIDS
Type NDB Name Sainte Marie Frequency 290 KHZ



Powered by Virtual Airlines Manager [v2.6.2]